createdAt,value
2019-03-09T00:01:34.275Z,53042.22
2019-03-09T00:04:05.011Z,53043.18
2019-03-09T00:06:35.609Z,53017.19
2019-03-09T00:09:08.487Z,52976.75
2019-03-09T00:11:39.039Z,52995.04
2019-03-09T00:14:09.687Z,52959.42
2019-03-09T00:16:40.846Z,52950.75
2019-03-09T00:19:11.465Z,52914.17
2019-03-09T00:21:42.030Z,52946.90
2019-03-09T00:24:37.832Z,52942.09
2019-03-09T00:27:14.500Z,52918.98
2019-03-09T00:30:04.320Z,52868.92
2019-03-09T00:32:35.206Z,52821.75
2019-03-09T00:35:05.923Z,52782.28
2019-03-09T00:37:36.455Z,52720.66
2019-03-09T00:40:08.235Z,52675.42
2019-03-09T00:42:39.297Z,52660.02
2019-03-09T00:45:10.195Z,52628.25
2019-03-09T00:47:40.744Z,52632.10
2019-03-09T00:50:11.999Z,52664.83
2019-03-09T00:52:42.632Z,52626.32
2019-03-09T00:55:14.013Z,52658.09
2019-03-09T00:57:45.537Z,52600.33
2019-03-09T01:00:19.633Z,52575.30
2019-03-09T01:02:51.193Z,52589.74
2019-03-09T01:05:21.995Z,52612.84
2019-03-09T01:07:52.559Z,52562.79
2019-03-09T01:10:23.447Z,52612.84
2019-03-09T01:12:53.993Z,52593.59
2019-03-09T01:15:24.561Z,52558.93
2019-03-09T01:17:55.210Z,52524.28
2019-03-09T01:20:26.608Z,52540.64
2019-03-09T01:22:57.168Z,52555.08
2019-03-09T01:25:27.862Z,52517.54
2019-03-09T01:27:58.409Z,52515.62
2019-03-09T01:30:29.030Z,52515.62
2019-03-09T01:32:59.631Z,52517.54
2019-03-09T01:35:30.193Z,52475.18
2019-03-09T01:38:00.792Z,52477.11
2019-03-09T01:40:31.358Z,52437.64
2019-03-09T01:43:02.265Z,52425.13
2019-03-09T01:45:33.223Z,52428.02
2019-03-09T01:48:03.865Z,52387.59
2019-03-09T01:50:34.412Z,52379.89
2019-03-09T01:53:05.365Z,52369.30
2019-03-09T01:55:35.907Z,52337.53
2019-03-09T01:58:06.555Z,52326.95
2019-03-09T02:00:37.108Z,52333.68
2019-03-09T02:03:07.721Z,52360.63
2019-03-09T02:05:38.593Z,52386.62
2019-03-09T02:08:09.198Z,52411.65
2019-03-09T02:10:39.840Z,52443.42
2019-03-09T02:13:10.506Z,52412.61
2019-03-09T02:15:41.429Z,52390.48
2019-03-09T02:18:12.030Z,52419.36
2019-03-09T02:20:42.573Z,52387.59
2019-03-09T02:23:13.220Z,52374.11
2019-03-09T02:25:44.058Z,52416.46
2019-03-09T02:28:14.660Z,52456.89
2019-03-09T02:30:45.269Z,52410.69
2019-03-09T02:33:16.127Z,52402.99
2019-03-09T02:35:46.739Z,52377.96
2019-03-09T02:38:30.717Z,52375.07
2019-03-09T02:41:01.252Z,52371.22
2019-03-09T02:43:31.716Z,52390.48
2019-03-09T02:46:02.466Z,52370.26
2019-03-09T02:48:33.033Z,52437.64
2019-03-09T02:51:03.586Z,52408.76
2019-03-09T02:53:34.179Z,52376.04
2019-03-09T02:56:04.713Z,52368.34
2019-03-09T02:58:35.293Z,52381.81
2019-03-09T03:01:20.699Z,52433.79
2019-03-09T03:03:51.652Z,52435.72
2019-03-09T03:06:22.369Z,52469.41
2019-03-09T03:08:53.290Z,52517.54
2019-03-09T03:11:23.827Z,52492.51
2019-03-09T03:13:54.875Z,52515.62
2019-03-09T03:16:25.438Z,52530.05
2019-03-09T03:18:56.021Z,52578.19
2019-03-09T03:21:26.767Z,52547.38
2019-03-09T03:23:57.337Z,52581.07
2019-03-09T03:26:28.144Z,52608.03
2019-03-09T03:28:59.035Z,52650.39
2019-03-09T03:31:29.814Z,52648.46
2019-03-09T03:34:00.555Z,52661.94
2019-03-09T03:36:31.141Z,52631.13
2019-03-09T03:39:01.854Z,52660.98
2019-03-09T03:41:32.620Z,52678.30
2019-03-09T03:44:03.477Z,52691.78
2019-03-09T03:46:34.021Z,52718.74
2019-03-09T03:49:05.063Z,52739.92
2019-03-09T03:51:35.646Z,52763.02
2019-03-09T03:54:06.425Z,52749.54
2019-03-09T03:56:36.970Z,52806.34
2019-03-09T03:59:07.667Z,52820.79
2019-03-09T04:01:38.229Z,52824.64
2019-03-09T04:04:09.237Z,52823.67
2019-03-09T04:06:40.296Z,52880.48
2019-03-09T04:09:11.354Z,52975.79
2019-03-09T04:11:42.075Z,53086.51
2019-03-09T04:14:13.099Z,53151.98
2019-03-09T04:19:11.261Z,53196.27
2019-03-09T04:21:42.569Z,53469.72
2019-03-09T04:24:13.619Z,53577.57
2019-03-09T04:26:44.195Z,53603.57
2019-03-09T04:29:15.215Z,53682.53
2019-03-09T04:31:45.801Z,53665.20
2019-03-09T04:34:16.721Z,53670.02
2019-03-09T04:36:47.283Z,53698.90
2019-03-09T04:39:17.981Z,53723.94
2019-03-09T04:41:54.187Z,53739.35
2019-03-09T04:44:27.077Z,53753.79
2019-03-09T04:46:57.585Z,53826.98
2019-03-09T04:49:28.159Z,53918.47
2019-03-09T04:51:58.935Z,53979.14
2019-03-09T04:54:29.513Z,54012.85
2019-03-09T04:57:00.293Z,54177.54
2019-03-09T04:59:31.582Z,54352.82
2019-03-09T05:02:02.274Z,54459.74
2019-03-09T05:05:01.035Z,54497.30
2019-03-09T05:07:47.282Z,54539.68
2019-03-09T05:10:48.861Z,54596.51
2019-03-09T05:14:08.340Z,54655.27
2019-03-09T05:16:38.921Z,54780.50
2019-03-09T05:19:09.507Z,55045.41
2019-03-09T05:21:40.633Z,55283.37
2019-03-09T05:24:11.226Z,55535.79
2019-03-09T05:26:44.955Z,55775.71
2019-03-09T05:29:15.653Z,55986.74
2019-03-09T05:31:46.522Z,56199.71
2019-03-09T05:34:17.488Z,56515.81
2019-03-09T05:36:48.060Z,56552.43
2019-03-09T05:39:19.205Z,56658.45
2019-03-09T05:41:49.782Z,56428.11
2019-03-09T05:44:20.716Z,56283.55
2019-03-09T05:46:51.410Z,56201.63
2019-03-09T05:49:21.973Z,55938.56
2019-03-09T05:52:32.600Z,55713.08
2019-03-09T05:55:16.497Z,55618.66
2019-03-09T05:57:47.468Z,55640.82
2019-03-09T06:00:18.851Z,55621.54
2019-03-09T06:02:49.715Z,55614.80
2019-03-09T06:05:44.618Z,55597.46
2019-03-09T06:08:15.278Z,55600.35
2019-03-09T06:10:46.039Z,55543.50
2019-03-09T06:13:16.925Z,55530.97
2019-03-09T06:15:47.692Z,55486.65
2019-03-09T06:18:18.449Z,55484.73
2019-03-09T06:20:49.317Z,55477.02
2019-03-09T06:23:20.022Z,55377.79
2019-03-09T06:25:50.589Z,55342.13
2019-03-09T06:28:22.137Z,55296.86
2019-03-09T06:30:52.730Z,55254.46
2019-03-09T06:33:34.888Z,55221.71
2019-03-09T06:36:53.960Z,55215.93
2019-03-09T06:39:47.436Z,55160.05
2019-03-09T06:42:35.232Z,55113.80
2019-03-09T06:45:07.616Z,55059.86
2019-03-09T06:47:38.186Z,55005.91
2019-03-09T06:50:11.075Z,54919.21
2019-03-09T06:52:42.079Z,54804.58
2019-03-09T06:55:13.488Z,54669.72
2019-03-09T06:57:44.191Z,54584.95
2019-03-09T07:00:38.841Z,54555.09
2019-03-09T07:03:10.250Z,54467.44
2019-03-09T07:05:40.824Z,54344.16
2019-03-09T07:08:12.060Z,54243.99
2019-03-09T07:10:42.632Z,54199.69
2019-03-09T07:13:13.296Z,54124.57
2019-03-09T07:15:46.206Z,54108.19
2019-03-09T07:18:26.266Z,54047.52
2019-03-09T07:20:56.852Z,54025.37
2019-03-09T07:23:27.440Z,54009.96
2019-03-09T07:25:58.225Z,53930.99
2019-03-09T07:28:28.807Z,53937.73
2019-03-09T07:30:59.566Z,53979.14
2019-03-09T07:33:30.126Z,53943.51
2019-03-09T07:36:01.219Z,53955.06
2019-03-09T07:38:31.798Z,53945.43
2019-03-09T07:41:02.515Z,53993.59
2019-03-09T07:43:33.381Z,53960.84
2019-03-09T07:46:04.075Z,54014.77
2019-03-09T07:48:34.640Z,53997.44
2019-03-09T07:51:05.352Z,54004.18
2019-03-09T07:53:35.913Z,54012.85
2019-03-09T07:56:06.633Z,54054.26
2019-03-09T07:58:37.254Z,54051.37
2019-03-09T08:01:08.307Z,54036.93
2019-03-09T08:03:39.324Z,54090.86
2019-03-09T08:06:10.176Z,54105.30
2019-03-09T08:08:40.774Z,54111.08
2019-03-09T08:11:11.551Z,54097.60
2019-03-09T08:13:42.386Z,54158.27
2019-03-09T08:16:13.425Z,54141.90
2019-03-09T08:18:45.339Z,54149.61
2019-03-09T08:21:16.060Z,54174.64
2019-03-09T08:23:47.622Z,54182.35
2019-03-09T08:26:18.202Z,54165.02
2019-03-09T08:28:48.962Z,54192.95
2019-03-09T08:31:19.921Z,54186.20
2019-03-09T08:33:50.811Z,54248.80
2019-03-09T08:36:21.406Z,54186.20
2019-03-09T08:38:52.287Z,54214.13
2019-03-09T08:41:23.212Z,54256.51
2019-03-09T08:43:53.940Z,54295.04
2019-03-09T08:46:24.833Z,54370.16
2019-03-09T08:48:55.481Z,54444.33
2019-03-09T08:51:26.051Z,54534.87
2019-03-09T08:53:56.750Z,54591.70
2019-03-09T08:56:27.316Z,54633.12
2019-03-09T08:58:58.592Z,54766.05
2019-03-09T09:01:29.533Z,54812.28
2019-03-09T09:04:00.182Z,54826.73
2019-03-09T09:06:31.418Z,54860.45
2019-03-09T09:09:02.223Z,54831.55
2019-03-09T09:11:32.811Z,54834.44
2019-03-09T09:14:03.549Z,54816.14
2019-03-09T09:16:34.119Z,54804.58
2019-03-09T09:19:05.269Z,54693.80
2019-03-09T09:21:35.976Z,54656.23
2019-03-09T09:24:06.597Z,54540.65
2019-03-09T09:26:37.192Z,54527.16
2019-03-09T09:29:08.130Z,54448.18
2019-03-09T09:31:38.874Z,54386.54
2019-03-09T09:34:09.460Z,54322.97
2019-03-09T09:36:40.167Z,54303.70
2019-03-09T09:39:11.105Z,54270.96
2019-03-09T09:41:41.818Z,54221.84
2019-03-09T09:44:12.727Z,54165.98
2019-03-09T09:46:43.476Z,54170.79
2019-03-09T09:49:14.193Z,54075.45
2019-03-09T09:51:44.768Z,54091.82
2019-03-09T09:54:15.334Z,54062.93
2019-03-09T09:56:46.101Z,54017.66
2019-03-09T09:59:16.709Z,54035.96
2019-03-09T10:01:47.808Z,53909.80
2019-03-09T10:04:18.414Z,53869.35
2019-03-09T10:06:49.144Z,53910.77
2019-03-09T10:09:20.025Z,53910.77
2019-03-09T10:11:50.995Z,53901.13
2019-03-09T10:14:21.951Z,53842.39
2019-03-09T10:16:53.226Z,53807.72
2019-03-09T10:19:23.784Z,53716.23
2019-03-09T10:21:54.373Z,53690.24
2019-03-09T10:24:25.107Z,53692.16
2019-03-09T10:26:56.011Z,53632.46
2019-03-09T10:29:27.416Z,53589.12
2019-03-09T10:31:58.005Z,53619.94
2019-03-09T10:34:28.773Z,53620.90
2019-03-09T10:37:00.033Z,53579.50
2019-03-09T10:39:30.735Z,53571.79
2019-03-09T10:42:01.453Z,53622.83
2019-03-09T10:44:33.139Z,53670.98
2019-03-09T10:47:03.718Z,53644.01
2019-03-09T10:49:34.485Z,53593.94
2019-03-09T10:52:05.188Z,53532.31
2019-03-09T10:54:36.391Z,53516.91
2019-03-09T10:57:07.843Z,53505.35
2019-03-09T10:59:38.461Z,53533.28
2019-03-09T11:02:09.251Z,53497.65
2019-03-09T11:04:40.124Z,53544.83
2019-03-09T11:07:10.722Z,53581.42
2019-03-09T11:09:41.383Z,53517.87
2019-03-09T11:12:11.964Z,53501.50
2019-03-09T11:14:42.933Z,53481.28
2019-03-09T11:17:13.518Z,53510.16
2019-03-09T11:19:44.186Z,53516.91
2019-03-09T11:22:14.783Z,53499.57
2019-03-09T11:24:45.360Z,53541.94
2019-03-09T11:27:16.107Z,53540.02
2019-03-09T11:29:46.684Z,53554.46
2019-03-09T11:32:18.018Z,53540.02
2019-03-09T11:34:48.953Z,53531.35
2019-03-09T11:37:19.651Z,53566.02
2019-03-09T11:39:50.238Z,53653.64
2019-03-09T11:42:20.908Z,53595.87
2019-03-09T11:44:51.774Z,53560.24
2019-03-09T11:47:22.467Z,53649.79
2019-03-09T11:49:53.044Z,53649.79
2019-03-09T11:52:23.733Z,53629.57
2019-03-09T11:54:54.617Z,53608.38
2019-03-09T11:57:25.418Z,53584.31
2019-03-09T11:59:56.467Z,53581.42
2019-03-09T12:02:27.211Z,53564.09
2019-03-09T12:04:58.069Z,53557.35
2019-03-09T12:07:28.760Z,53523.64
2019-03-09T12:09:59.716Z,53481.28
2019-03-09T12:12:30.551Z,53458.17
2019-03-09T12:15:01.112Z,53421.58
2019-03-09T12:17:31.791Z,53413.87
2019-03-09T12:20:02.353Z,53422.54
2019-03-09T12:22:33.041Z,53410.02
2019-03-09T12:25:03.674Z,53398.47
2019-03-09T12:27:34.431Z,53376.32
2019-03-09T12:30:05.287Z,53392.69
2019-03-09T12:32:36.050Z,53348.40
2019-03-09T12:35:06.945Z,53357.07
2019-03-09T12:37:37.678Z,53353.21
2019-03-09T12:40:10.902Z,53388.84
2019-03-09T12:42:41.492Z,53322.40
2019-03-09T12:45:12.696Z,53386.91
2019-03-09T12:47:43.243Z,53371.51
2019-03-09T12:50:16.554Z,53363.80
2019-03-09T12:52:47.622Z,53399.43
2019-03-09T12:55:18.196Z,53367.66
2019-03-09T12:57:49.125Z,53415.80
2019-03-09T13:00:20.571Z,53378.25
2019-03-09T13:02:51.578Z,53388.84
2019-03-09T13:05:22.262Z,53399.43
2019-03-09T13:07:53.014Z,53436.98
2019-03-09T13:10:23.612Z,53408.10
2019-03-09T13:12:54.161Z,53436.98
2019-03-09T13:15:24.942Z,53465.87
2019-03-09T13:17:56.117Z,53477.43
2019-03-09T13:20:26.815Z,53494.76
2019-03-09T13:22:57.851Z,53513.05
2019-03-09T13:25:28.433Z,53515.94
2019-03-09T13:27:59.365Z,53621.87
2019-03-09T13:30:30.638Z,53688.31
2019-03-09T13:33:01.323Z,53704.68
2019-03-09T13:35:32.488Z,53747.05
2019-03-09T13:38:03.080Z,53797.13
2019-03-09T13:40:33.797Z,53795.20
2019-03-09T13:43:04.478Z,53797.13
2019-03-09T13:45:35.266Z,53693.13
2019-03-09T13:48:05.833Z,53622.83
2019-03-09T13:50:37.269Z,53609.35
2019-03-09T13:53:07.845Z,53596.83
2019-03-09T13:55:39.851Z,53653.64
2019-03-09T13:58:10.827Z,53641.12
2019-03-09T14:00:41.626Z,53652.68
2019-03-09T14:03:12.479Z,53633.42
2019-03-09T14:05:43.196Z,53671.94
2019-03-09T14:08:13.961Z,53730.68
2019-03-09T14:10:44.623Z,53831.80
2019-03-09T14:13:15.611Z,53958.92
2019-03-09T14:15:46.298Z,54030.18
2019-03-09T14:18:16.859Z,54081.23
2019-03-09T14:20:48.514Z,54112.04
2019-03-09T14:23:19.146Z,54190.05
2019-03-09T14:25:49.730Z,54120.71
2019-03-09T14:28:20.418Z,54165.98
2019-03-09T14:30:51.015Z,54080.26
2019-03-09T14:33:21.758Z,54020.55
2019-03-09T14:35:52.342Z,53946.39
2019-03-09T14:38:23.375Z,53868.39
2019-03-09T14:40:54.053Z,53435.06
2019-03-09T14:43:24.783Z,53316.62
2019-03-09T14:45:56.053Z,53070.14
2019-03-09T14:48:26.648Z,53040.29
2019-03-09T14:50:57.256Z,53199.16
2019-03-09T14:53:28.104Z,52996.00
2019-03-09T14:55:58.721Z,53328.18
2019-03-09T14:58:29.387Z,53464.91
2019-03-09T15:01:00.469Z,53480.32
2019-03-09T15:03:31.162Z,53614.16
2019-03-09T15:06:02.060Z,53545.79
2019-03-09T15:08:32.753Z,53700.83
2019-03-09T15:11:03.349Z,53810.61
2019-03-09T15:13:34.861Z,53844.32
2019-03-09T15:16:05.438Z,53927.14
2019-03-09T15:18:36.842Z,53962.77
2019-03-09T15:21:07.707Z,53969.51
2019-03-09T15:23:38.457Z,53995.51
2019-03-09T15:26:09.237Z,54021.52
2019-03-09T15:28:40.217Z,54071.59
2019-03-09T15:31:10.959Z,54135.16
2019-03-09T15:33:41.851Z,54087.00
2019-03-09T15:36:13.132Z,54145.75
2019-03-09T15:38:44.112Z,54177.54
2019-03-09T15:41:14.817Z,54160.20
2019-03-09T15:43:45.794Z,54161.16
2019-03-09T15:46:16.390Z,54104.34
2019-03-09T15:48:47.319Z,54054.26
2019-03-09T15:51:18.720Z,54051.37
2019-03-09T15:53:49.680Z,54088.93
2019-03-09T15:56:20.692Z,54121.68
2019-03-09T15:58:51.706Z,54155.38
2019-03-09T16:01:22.482Z,54209.32
2019-03-09T16:03:53.352Z,54299.85
2019-03-09T16:06:24.509Z,54390.39
2019-03-09T16:08:55.390Z,54467.44
2019-03-09T16:11:26.423Z,54455.89
2019-03-09T16:13:57.043Z,54465.52
2019-03-09T16:16:27.777Z,54471.30
2019-03-09T16:18:58.404Z,54467.44
2019-03-09T16:21:29.072Z,54442.40
2019-03-09T16:24:00.165Z,54428.92
2019-03-09T16:26:30.798Z,54429.88
2019-03-09T16:29:01.480Z,54396.17
2019-03-09T16:31:32.091Z,54375.94
2019-03-09T16:34:02.816Z,54370.16
2019-03-09T16:36:38.070Z,54327.79
2019-03-09T16:39:09.379Z,54230.50
2019-03-09T16:41:40.097Z,54193.91
2019-03-09T16:44:11.051Z,54135.16
2019-03-09T16:46:41.608Z,53997.44
2019-03-09T16:49:12.218Z,53866.46
2019-03-09T16:51:42.897Z,53744.16
2019-03-09T16:54:13.630Z,53700.83
2019-03-09T16:56:44.211Z,53596.83
2019-03-09T16:59:14.837Z,53606.46
2019-03-09T17:01:45.427Z,53566.02
2019-03-09T17:04:16.440Z,53533.28
2019-03-09T17:06:47.346Z,53493.80
2019-03-09T17:09:18.079Z,53382.10
2019-03-09T17:11:48.670Z,53346.47
2019-03-09T17:14:19.344Z,53328.18
2019-03-09T17:16:49.921Z,53225.15
2019-03-09T17:19:21.166Z,53103.84
2019-03-09T17:21:51.762Z,53063.40
2019-03-09T17:24:22.473Z,53059.55
2019-03-09T17:26:53.205Z,53027.78
2019-03-09T17:29:23.786Z,53034.52
2019-03-09T17:31:54.489Z,53009.48
2019-03-09T17:34:25.386Z,53030.66
2019-03-09T17:36:56.164Z,53009.48
2019-03-09T17:39:26.868Z,53001.78
2019-03-09T17:41:57.441Z,52965.20
2019-03-09T17:44:28.126Z,52919.95
2019-03-09T17:46:58.703Z,52928.61
2019-03-09T17:49:29.491Z,52910.32
2019-03-09T17:52:00.104Z,52895.88
2019-03-09T17:54:31.093Z,52874.70
2019-03-09T17:57:01.703Z,52917.06
2019-03-09T17:59:32.278Z,52864.11
2019-03-09T18:02:02.867Z,52909.36
2019-03-09T18:04:33.448Z,52905.51
2019-03-09T18:07:04.432Z,52943.05
2019-03-09T18:09:35.017Z,52903.58
2019-03-09T18:12:05.730Z,52878.55
2019-03-09T18:14:36.270Z,52865.07
2019-03-09T18:17:07.167Z,52829.45
2019-03-09T18:19:37.756Z,52849.67
2019-03-09T18:22:08.473Z,52865.07
2019-03-09T18:24:39.049Z,52801.53
2019-03-09T18:27:09.627Z,52780.35
2019-03-09T18:29:40.278Z,52724.52
2019-03-09T18:32:10.971Z,52706.22
2019-03-09T18:34:41.560Z,52684.08
2019-03-09T18:37:12.322Z,52609.95
2019-03-09T18:39:42.890Z,52509.84
2019-03-09T18:42:13.670Z,52500.21
2019-03-09T18:44:44.235Z,52404.91
2019-03-09T18:47:15.278Z,52419.36
2019-03-09T18:49:45.873Z,52333.68
2019-03-09T18:52:16.613Z,52368.34
2019-03-09T18:54:47.218Z,52400.10
2019-03-09T18:57:17.871Z,52405.87
2019-03-09T18:59:48.639Z,52402.03
2019-03-09T19:02:19.343Z,52423.20
2019-03-09T19:04:50.214Z,52413.58
2019-03-09T19:07:21.463Z,52403.95
2019-03-09T19:09:52.808Z,52376.04
2019-03-09T19:12:23.388Z,52295.18
2019-03-09T19:14:54.422Z,52225.88
2019-03-09T19:17:25.165Z,52214.32
2019-03-09T19:19:56.800Z,52210.47
2019-03-09T19:22:27.704Z,52156.57
2019-03-09T19:24:58.280Z,52158.50
2019-03-09T19:27:29.609Z,52191.22
2019-03-09T19:30:00.559Z,52210.47
2019-03-09T19:32:31.677Z,52287.48
2019-03-09T19:35:02.283Z,52299.03
2019-03-09T19:37:33.661Z,52301.92
2019-03-09T19:40:05.028Z,52337.53
2019-03-09T19:42:37.205Z,52383.74
2019-03-09T19:45:09.454Z,52413.58
2019-03-09T19:47:40.048Z,52421.28
2019-03-09T19:50:14.179Z,52456.89
2019-03-09T19:52:45.237Z,52499.25
2019-03-09T19:55:15.982Z,52509.84
2019-03-09T19:57:46.689Z,52682.16
2019-03-09T20:00:17.443Z,53074.95
2019-03-09T20:02:48.336Z,53438.91
2019-03-09T20:05:19.221Z,53766.31
2019-03-09T20:07:49.791Z,53974.32
2019-03-09T20:10:20.630Z,54200.65
2019-03-09T20:12:51.323Z,54368.23
2019-03-09T20:15:22.595Z,54530.05
2019-03-09T20:17:53.539Z,55200.51
2019-03-09T20:20:24.348Z,55115.73
2019-03-09T20:22:54.959Z,55082.98
2019-03-09T20:25:28.381Z,55022.29
2019-03-09T20:27:58.436Z,54992.42
2019-03-09T20:30:29.129Z,54955.82
2019-03-09T20:32:59.906Z,54931.73
2019-03-09T20:35:30.754Z,54898.02
2019-03-09T20:38:01.999Z,54912.46
2019-03-09T20:40:33.250Z,54861.41
2019-03-09T20:43:03.827Z,54866.23
2019-03-09T20:45:34.876Z,54827.70
2019-03-09T20:48:05.917Z,54837.33
2019-03-09T20:50:36.997Z,54835.40
2019-03-09T20:53:07.571Z,54780.50
2019-03-09T20:55:38.328Z,54776.64
2019-03-09T20:58:09.203Z,54773.75
2019-03-09T21:00:40.222Z,54790.13
2019-03-09T21:03:10.950Z,54767.97
2019-03-09T21:05:42.390Z,54729.44
2019-03-09T21:08:13.255Z,54753.52
2019-03-09T21:10:44.006Z,54781.46
2019-03-09T21:13:15.953Z,54754.49
2019-03-09T21:15:47.149Z,54719.81
2019-03-09T21:18:18.215Z,54747.74
2019-03-09T21:20:48.889Z,54699.58
2019-03-09T21:23:19.739Z,54720.77
2019-03-09T21:25:51.181Z,54704.40
2019-03-09T21:28:22.061Z,54731.37
2019-03-09T21:30:52.834Z,54730.41
2019-03-09T21:33:24.065Z,54647.56
2019-03-09T21:35:54.984Z,54712.10
2019-03-09T21:38:26.100Z,54702.47
2019-03-09T21:40:56.920Z,54682.24
2019-03-09T21:43:28.170Z,54679.35
2019-03-09T21:45:58.975Z,54662.02
2019-03-09T21:48:30.000Z,54684.17
2019-03-09T21:51:01.477Z,54677.43
2019-03-09T21:53:32.548Z,54636.97
2019-03-09T21:56:03.327Z,54630.23
2019-03-09T21:58:34.394Z,54646.60
2019-03-09T22:01:05.111Z,54625.41
2019-03-09T22:03:36.243Z,54584.95
2019-03-09T22:06:06.970Z,54627.34
2019-03-09T22:08:38.390Z,54555.09
2019-03-09T22:11:09.308Z,54578.21
2019-03-09T22:13:40.033Z,54548.35
2019-03-09T22:16:10.796Z,54608.07
2019-03-09T22:18:41.606Z,54592.66
2019-03-09T22:21:12.765Z,54608.07
2019-03-09T22:23:44.338Z,54596.51
2019-03-09T22:26:15.259Z,54580.14
2019-03-09T22:28:46.400Z,54587.84
2019-03-09T22:31:17.116Z,54502.12
2019-03-09T22:33:48.009Z,54499.23
2019-03-09T22:36:19.262Z,54439.51
2019-03-09T22:38:50.057Z,54330.67
2019-03-09T22:41:20.823Z,54205.46
2019-03-09T22:43:51.940Z,54018.62
2019-03-09T22:46:23.598Z,53916.54
2019-03-09T22:48:54.389Z,53749.94
2019-03-09T22:51:24.999Z,53676.75
2019-03-09T22:53:55.899Z,53582.39
2019-03-09T22:56:26.616Z,53543.87
2019-03-09T22:58:57.449Z,53458.17
2019-03-09T23:01:29.088Z,53402.32
2019-03-09T23:03:59.955Z,53354.18
2019-03-09T23:06:31.243Z,53314.70
2019-03-09T23:09:01.950Z,53314.70
2019-03-09T23:11:32.598Z,53247.30
2019-03-09T23:14:03.309Z,53214.56
2019-03-09T23:16:33.908Z,53173.16
2019-03-09T23:19:04.598Z,53154.87
2019-03-09T23:21:35.171Z,53132.72
2019-03-09T23:24:05.836Z,53125.02
2019-03-09T23:26:36.415Z,53091.32
2019-03-09T23:29:07.899Z,53073.03
2019-03-09T23:31:38.951Z,53055.70
2019-03-09T23:34:09.839Z,53097.10
2019-03-09T23:36:40.404Z,53135.61
2019-03-09T23:39:11.619Z,53116.36
2019-03-09T23:41:42.565Z,53136.57
2019-03-09T23:44:13.246Z,53116.36
2019-03-09T23:46:43.815Z,53084.58
2019-03-09T23:49:14.510Z,53083.62
2019-03-09T23:51:45.368Z,53078.80
2019-03-09T23:54:16.095Z,53089.39
2019-03-09T23:56:46.722Z,53121.17
2019-03-09T23:59:17.453Z,53118.28
